< < Back
Terminal Aerodrome Forecast


Current Version              Previous Versions:   1  2  3  4  5  6  7  8  9  

Terminal Aerodrome Forecast

595
FTUS44 KOHX 262016 AAC
TAFBNA
TAF AMD
KBNA 262016Z 2620/2718 36010KT P6SM -SHRA VCTS SCT008 BKN030CB
      TEMPO 2620/2622 3SM -SHRA BKN008
     FM262200 34008KT P6SM -SHRA VCSH BKN025 OVC035
     FM270100 36005KT P6SM SKC=

Latest METAR

102
SAUS70 KWBC 270700 RRE
MTRBNA
METAR KBNA 270653Z 32003KT 10SM CLR 14/12 A3008 RMK AO2 SLP181
T01440122


USA.gov is the U.S. government's official web portal to all federal, state and local government web resources and services.